sensor_id;sensor_type;location;lat;lon;timestamp;pressure;altitude;pressure_sealevel;temperature;humidity
4346;BME280;2186;49.866;7.986;2023-03-21T00:00:32;100494.16;;;10.19;100.00
4346;BME280;2186;49.866;7.986;2023-03-21T00:02:58;100494.28;;;10.13;100.00
4346;BME280;2186;49.866;7.986;2023-03-21T00:05:25;100488.09;;;10.12;100.00
4346;BME280;2186;49.866;7.986;2023-03-21T00:07:52;100484.50;;;10.15;100.00
4346;BME280;2186;49.866;7.986;2023-03-21T00:10:18;100480.94;;;10.14;100.00
4346;BME280;2186;49.866;7.986;2023-03-21T00:13:02;100472.38;;;10.03;100.00
4346;BME280;2186;49.866;7.986;2023-03-21T00:15:31;100472.19;;;10.10;100.00
4346;BME280;2186;49.866;7.986;2023-03-21T00:18:13;100470.31;;;10.14;100.00
4346;BME280;2186;49.866;7.986;2023-03-21T00:20:41;100469.41;;;10.17;100.00
4346;BME280;2186;49.866;7.986;2023-03-21T00:23:12;100463.09;;;10.22;100.00
4346;BME280;2186;49.866;7.986;2023-03-21T00:25:38;100463.06;;;10.24;100.00
4346;BME280;2186;49.866;7.986;2023-03-21T00:28:05;100468.28;;;10.27;98.98
4346;BME280;2186;49.866;7.986;2023-03-21T00:30:34;100466.84;;;10.12;100.00
4346;BME280;2186;49.866;7.986;2023-03-21T00:33:00;100462.31;;;10.17;100.00
4346;BME280;2186;49.866;7.986;2023-03-21T00:35:41;100456.88;;;10.23;100.00
4346;BME280;2186;49.866;7.986;2023-03-21T00:38:32;100460.44;;;10.22;100.00
4346;BME280;2186;49.866;7.986;2023-03-21T00:40:59;100466.44;;;10.30;100.00
4346;BME280;2186;49.866;7.986;2023-03-21T00:43:42;100459.69;;;10.14;100.00
4346;BME280;2186;49.866;7.986;2023-03-21T00:46:09;100460.03;;;10.02;100.00
4346;BME280;2186;49.866;7.986;2023-03-21T00:48:35;100455.50;;;10.05;100.00
4346;BME280;2186;49.866;7.986;2023-03-21T00:51:11;100456.34;;;10.07;100.00
4346;BME280;2186;49.866;7.986;2023-03-21T00:53:38;100458.91;;;10.10;100.00
4346;BME280;2186;49.866;7.986;2023-03-21T00:56:05;100448.19;;;10.15;100.00
4346;BME280;2186;49.866;7.986;2023-03-21T00:58:31;100439.44;;;10.10;100.00
4346;BME280;2186;49.866;7.986;2023-03-21T01:00:58;100442.97;;;10.10;100.00
4346;BME280;2186;49.866;7.986;2023-03-21T01:03:24;100448.53;;;10.00;100.00
4346;BME280;2186;49.866;7.986;2023-03-21T01:05:52;100442.22;;;10.05;100.00
4346;BME280;2186;49.866;7.986;2023-03-21T01:08:33;100434.34;;;10.02;100.00
4346;BME280;2186;49.866;7.986;2023-03-21T01:11:18;100434.19;;;10.08;100.00
4346;BME280;2186;49.866;7.986;2023-03-21T01:13:45;100432.47;;;10.06;100.00
4346;BME280;2186;49.866;7.986;2023-03-21T01:16:33;100428.66;;;10.18;100.00
4346;BME280;2186;49.866;7.986;2023-03-21T01:19:00;100421.59;;;10.17;100.00
4346;BME280;2186;49.866;7.986;2023-03-21T01:21:30;100421.06;;;10.02;100.00
4346;BME280;2186;49.866;7.986;2023-03-21T01:23:57;100418.38;;;10.04;100.00
4346;BME280;2186;49.866;7.986;2023-03-21T01:26:24;100417.44;;;10.05;100.00
4346;BME280;2186;49.866;7.986;2023-03-21T01:28:50;100421.91;;;10.04;100.00
4346;BME280;2186;49.866;7.986;2023-03-21T01:31:17;100428.31;;;9.94;100.00
4346;BME280;2186;49.866;7.986;2023-03-21T01:33:44;100430.69;;;10.06;100.00
4346;BME280;2186;49.866;7.986;2023-03-21T01:36:14;100421.97;;;10.00;100.00
4346;BME280;2186;49.866;7.986;2023-03-21T01:38:42;100425.59;;;9.97;100.00
4346;BME280;2186;49.866;7.986;2023-03-21T01:41:30;100421.31;;;9.92;100.00
4346;BME280;2186;49.866;7.986;2023-03-21T01:44:17;100424.63;;;10.00;100.00
4346;BME280;2186;49.866;7.986;2023-03-21T01:46:51;100415.63;;;10.07;100.00
4346;BME280;2186;49.866;7.986;2023-03-21T01:49:41;100418.50;;;9.98;100.00
4346;BME280;2186;49.866;7.986;2023-03-21T01:52:14;100410.66;;;9.93;100.00
4346;BME280;2186;49.866;7.986;2023-03-21T01:54:55;100407.09;;;9.94;100.00
4346;BME280;2186;49.866;7.986;2023-03-21T01:57:36;100406.53;;;9.80;100.00
4346;BME280;2186;49.866;7.986;2023-03-21T02:00:15;100408.59;;;9.67;100.00
4346;BME280;2186;49.866;7.986;2023-03-21T02:02:43;100403.94;;;9.78;100.00
4346;BME280;2186;49.866;7.986;2023-03-21T02:05:27;100399.44;;;9.80;100.00
4346;BME280;2186;49.866;7.986;2023-03-21T02:07:55;100401.19;;;9.82;100.00
4346;BME280;2186;49.866;7.986;2023-03-21T02:10:22;100401.06;;;9.86;100.00
4346;BME280;2186;49.866;7.986;2023-03-21T02:12:48;100398.41;;;9.88;100.00
4346;BME280;2186;49.866;7.986;2023-03-21T02:15:15;100394.34;;;9.71;100.00
4346;BME280;2186;49.866;7.986;2023-03-21T02:18:06;100390.63;;;9.80;100.00
4346;BME280;2186;49.866;7.986;2023-03-21T02:20:50;100386.19;;;9.80;100.00
4346;BME280;2186;49.866;7.986;2023-03-21T02:23:52;100385.59;;;9.68;100.00
4346;BME280;2186;49.866;7.986;2023-03-21T02:29:18;100382.41;;;9.52;100.00
4346;BME280;2186;49.866;7.986;2023-03-21T02:38:14;100375.81;;;9.31;100.00
4346;BME280;2186;49.866;7.986;2023-03-21T02:40:57;100364.91;;;9.05;100.00
4346;BME280;2186;49.866;7.986;2023-03-21T02:43:45;100358.28;;;9.24;100.00
4346;BME280;2186;49.866;7.986;2023-03-21T02:46:32;100362.66;;;9.27;100.00
4346;BME280;2186;49.866;7.986;2023-03-21T02:49:29;100355.00;;;9.13;100.00
4346;BME280;2186;49.866;7.986;2023-03-21T02:51:58;100364.78;;;9.11;100.00
4346;BME280;2186;49.866;7.986;2023-03-21T02:54:40;100358.63;;;9.49;100.00
4346;BME280;2186;49.866;7.986;2023-03-21T02:57:17;100358.13;;;9.69;100.00
4346;BME280;2186;49.866;7.986;2023-03-21T02:59:46;100359.84;;;9.71;100.00
4346;BME280;2186;49.866;7.986;2023-03-21T03:02:27;100356.31;;;9.71;100.00
4346;BME280;2186;49.866;7.986;2023-03-21T03:04:53;100360.91;;;9.64;100.00
4346;BME280;2186;49.866;7.986;2023-03-21T03:07:38;100352.94;;;9.64;100.00
4346;BME280;2186;49.866;7.986;2023-03-21T03:21:27;100344.19;;;9.96;100.00
4346;BME280;2186;49.866;7.986;2023-03-21T03:24:01;100342.41;;;9.97;100.00
4346;BME280;2186;49.866;7.986;2023-03-21T03:26:58;100342.41;;;9.97;100.00
4346;BME280;2186;49.866;7.986;2023-03-21T03:29:29;100336.25;;;9.95;100.00
4346;BME280;2186;49.866;7.986;2023-03-21T03:32:21;100332.09;;;9.85;100.00
4346;BME280;2186;49.866;7.986;2023-03-21T03:34:51;100338.84;;;9.62;99.98
4346;BME280;2186;49.866;7.986;2023-03-21T03:37:28;100337.69;;;9.74;100.00
4346;BME280;2186;49.866;7.986;2023-03-21T03:40:06;100340.00;;;9.86;100.00
4346;BME280;2186;49.866;7.986;2023-03-21T03:42:36;100339.22;;;9.83;100.00
4346;BME280;2186;49.866;7.986;2023-03-21T03:45:06;100340.88;;;9.88;100.00
4346;BME280;2186;49.866;7.986;2023-03-21T03:50:45;100345.97;;;9.96;100.00
4346;BME280;2186;49.866;7.986;2023-03-21T03:53:21;100343.53;;;9.87;100.00
4346;BME280;2186;49.866;7.986;2023-03-21T03:55:50;100347.72;;;9.97;100.00
4346;BME280;2186;49.866;7.986;2023-03-21T03:58:19;100347.75;;;9.95;100.00
4346;BME280;2186;49.866;7.986;2023-03-21T04:00:55;100358.47;;;9.92;100.00
4346;BME280;2186;49.866;7.986;2023-03-21T04:03:22;100355.75;;;9.94;100.00
4346;BME280;2186;49.866;7.986;2023-03-21T04:05:49;100356.81;;;9.87;100.00
4346;BME280;2186;49.866;7.986;2023-03-21T04:08:16;100354.16;;;9.88;100.00
4346;BME280;2186;49.866;7.986;2023-03-21T04:10:43;100350.88;;;9.77;100.00
4346;BME280;2186;49.866;7.986;2023-03-21T04:13:10;100347.16;;;9.84;100.00
4346;BME280;2186;49.866;7.986;2023-03-21T04:15:36;100357.63;;;9.90;100.00
4346;BME280;2186;49.866;7.986;2023-03-21T04:18:03;100353.81;;;10.02;100.00
4346;BME280;2186;49.866;7.986;2023-03-21T04:20:29;100351.31;;;9.94;100.00
4346;BME280;2186;49.866;7.986;2023-03-21T04:23:08;100352.28;;;9.92;100.00
4346;BME280;2186;49.866;7.986;2023-03-21T04:25:35;100352.19;;;9.95;99.51
4346;BME280;2186;49.866;7.986;2023-03-21T04:28:12;100351.44;;;9.90;100.00
4346;BME280;2186;49.866;7.986;2023-03-21T04:30:39;100349.09;;;9.77;100.00
4346;BME280;2186;49.866;7.986;2023-03-21T04:33:14;100349.09;;;9.77;100.00
4346;BME280;2186;49.866;7.986;2023-03-21T04:35:40;100357.72;;;9.87;100.00
4346;BME280;2186;49.866;7.986;2023-03-21T04:38:07;100353.06;;;9.95;100.00
4346;BME280;2186;49.866;7.986;2023-03-21T04:40:34;100344.41;;;9.89;100.00
4346;BME280;2186;49.866;7.986;2023-03-21T04:43:01;100333.91;;;9.83;100.00
4346;BME280;2186;49.866;7.986;2023-03-21T04:45:27;100340.38;;;9.71;100.00
4346;BME280;2186;49.866;7.986;2023-03-21T04:47:54;100343.63;;;9.84;100.00
4346;BME280;2186;49.866;7.986;2023-03-21T04:50:21;100342.63;;;9.89;100.00
4346;BME280;2186;49.866;7.986;2023-03-21T04:52:48;100338.97;;;9.93;100.00
4346;BME280;2186;49.866;7.986;2023-03-21T04:55:14;100339.00;;;9.92;100.00
4346;BME280;2186;49.866;7.986;2023-03-21T04:57:41;100331.91;;;9.92;100.00
4346;BME280;2186;49.866;7.986;2023-03-21T05:00:08;100339.00;;;9.92;100.00
4346;BME280;2186;49.866;7.986;2023-03-21T05:02:37;100334.69;;;9.88;100.00
4346;BME280;2186;49.866;7.986;2023-03-21T05:05:04;100336.31;;;9.93;100.00
4346;BME280;2186;49.866;7.986;2023-03-21T05:07:30;100336.59;;;9.81;100.00
4346;BME280;2186;49.866;7.986;2023-03-21T05:09:58;100327.84;;;9.77;100.00
4346;BME280;2186;49.866;7.986;2023-03-21T05:12:27;100327.03;;;9.75;100.00
4346;BME280;2186;49.866;7.986;2023-03-21T05:14:54;100334.94;;;9.77;100.00
4346;BME280;2186;49.866;7.986;2023-03-21T05:17:20;100326.00;;;9.81;100.00
4346;BME280;2186;49.866;7.986;2023-03-21T05:19:50;100325.81;;;9.89;100.00
4346;BME280;2186;49.866;7.986;2023-03-21T05:22:18;100334.53;;;9.94;100.00
4346;BME280;2186;49.866;7.986;2023-03-21T05:24:45;100327.44;;;9.94;100.00
4346;BME280;2186;49.866;7.986;2023-03-21T05:27:16;100319.47;;;9.94;100.00
4346;BME280;2186;49.866;7.986;2023-03-21T05:30:05;100326.34;;;10.03;100.00
4346;BME280;2186;49.866;7.986;2023-03-21T05:32:32;100324.97;;;10.21;100.00
4346;BME280;2186;49.866;7.986;2023-03-21T05:34:59;100325.88;;;10.21;100.00
4346;BME280;2186;49.866;7.986;2023-03-21T05:37:27;100317.09;;;10.18;100.00
4346;BME280;2186;49.866;7.986;2023-03-21T05:39:53;100320.56;;;10.21;100.00
4346;BME280;2186;49.866;7.986;2023-03-21T05:42:21;100327.44;;;10.30;100.00
4346;BME280;2186;49.866;7.986;2023-03-21T05:44:47;100326.75;;;10.20;100.00
4346;BME280;2186;49.866;7.986;2023-03-21T05:47:15;100331.25;;;10.18;100.00
4346;BME280;2186;49.866;7.986;2023-03-21T05:49:43;100333.97;;;10.15;100.00
4346;BME280;2186;49.866;7.986;2023-03-21T05:52:09;100324.19;;;10.17;100.00
4346;BME280;2186;49.866;7.986;2023-03-21T05:54:36;100327.63;;;10.21;100.00
4346;BME280;2186;49.866;7.986;2023-03-21T05:57:03;100326.75;;;10.20;100.00
4346;BME280;2186;49.866;7.986;2023-03-21T05:59:30;100332.97;;;10.19;100.00
4346;BME280;2186;49.866;7.986;2023-03-21T06:01:56;100330.31;;;10.19;100.00
4346;BME280;2186;49.866;7.986;2023-03-21T06:04:23;100339.91;;;10.26;100.00
4346;BME280;2186;49.866;7.986;2023-03-21T06:06:49;100334.66;;;10.23;100.00
4346;BME280;2186;49.866;7.986;2023-03-21T06:09:17;100322.34;;;10.19;100.00
4346;BME280;2186;49.866;7.986;2023-03-21T06:11:46;100330.19;;;10.25;100.00
4346;BME280;2186;49.866;7.986;2023-03-21T06:14:13;100338.88;;;10.32;100.00
4346;BME280;2186;49.866;7.986;2023-03-21T06:16:40;100338.50;;;10.46;100.00
4346;BME280;2186;49.866;7.986;2023-03-21T06:19:07;100337.19;;;10.28;100.00
4346;BME280;2186;49.866;7.986;2023-03-21T06:21:33;100330.78;;;10.36;99.65
4346;BME280;2186;49.866;7.986;2023-03-21T06:24:00;100338.66;;;10.39;100.00
4346;BME280;2186;49.866;7.986;2023-03-21T06:26:27;100333.34;;;10.39;100.00
4346;BME280;2186;49.866;7.986;2023-03-21T06:28:53;100342.19;;;10.73;99.18
4346;BME280;2186;49.866;7.986;2023-03-21T06:31:20;100338.91;;;10.63;98.92
4346;BME280;2186;49.866;7.986;2023-03-21T06:33:48;100344.94;;;10.68;98.48
4346;BME280;2186;49.866;7.986;2023-03-21T06:36:14;100343.09;;;10.72;98.86
4346;BME280;2186;49.866;7.986;2023-03-21T06:38:41;100347.94;;;10.57;98.60
4346;BME280;2186;49.866;7.986;2023-03-21T06:41:10;100349.81;;;10.52;98.53
4346;BME280;2186;49.866;7.986;2023-03-21T06:43:37;100357.81;;;10.52;99.41
4346;BME280;2186;49.866;7.986;2023-03-21T06:46:04;100353.09;;;10.62;99.44
4346;BME280;2186;49.866;7.986;2023-03-21T06:48:31;100345.31;;;10.56;99.12
4346;BME280;2186;49.866;7.986;2023-03-21T06:50:57;100352.19;;;10.63;99.26
4346;BME280;2186;49.866;7.986;2023-03-21T06:53:24;100339.69;;;10.66;98.88
4346;BME280;2186;49.866;7.986;2023-03-21T06:55:55;100347.75;;;10.63;99.29
4346;BME280;2186;49.866;7.986;2023-03-21T06:58:22;100345.75;;;10.72;98.43
4346;BME280;2186;49.866;7.986;2023-03-21T07:00:49;100345.19;;;10.91;97.52
4346;BME280;2186;49.866;7.986;2023-03-21T07:03:15;100343.47;;;10.89;97.32
4346;BME280;2186;49.866;7.986;2023-03-21T07:05:42;100345.38;;;11.15;96.79
4346;BME280;2186;49.866;7.986;2023-03-21T07:08:08;100349.97;;;11.39;96.03
4346;BME280;2186;49.866;7.986;2023-03-21T07:10:40;100345.06;;;11.53;94.47
4346;BME280;2186;49.866;7.986;2023-03-21T07:13:11;100351.81;;;11.36;93.00
4346;BME280;2186;49.866;7.986;2023-03-21T07:15:37;100351.09;;;11.58;91.98
4346;BME280;2186;49.866;7.986;2023-03-21T07:18:05;100349.84;;;11.70;90.25
4346;BME280;2186;49.866;7.986;2023-03-21T07:20:32;100348.97;;;11.70;88.66
4346;BME280;2186;49.866;7.986;2023-03-21T07:22:59;100352.41;;;12.01;87.31
4346;BME280;2186;49.866;7.986;2023-03-21T07:25:26;100354.41;;;11.67;88.08
4346;BME280;2186;49.866;7.986;2023-03-21T07:27:53;100348.97;;;11.70;87.78
4346;BME280;2186;49.866;7.986;2023-03-21T07:30:20;100341.09;;;11.67;88.47
4346;BME280;2186;49.866;7.986;2023-03-21T07:32:47;100354.25;;;11.71;90.30
4346;BME280;2186;49.866;7.986;2023-03-21T07:35:16;100345.63;;;11.63;90.43
4346;BME280;2186;49.866;7.986;2023-03-21T07:37:42;100343.22;;;11.55;90.16
4346;BME280;2186;49.866;7.986;2023-03-21T07:40:09;100347.78;;;11.78;89.44
4346;BME280;2186;49.866;7.986;2023-03-21T07:42:39;100342.16;;;11.61;88.81
4346;BME280;2186;49.866;7.986;2023-03-21T07:45:07;100346.28;;;11.43;88.37
4346;BME280;2186;49.866;7.986;2023-03-21T07:47:35;100346.06;;;11.49;88.82
4346;BME280;2186;49.866;7.986;2023-03-21T07:50:02;100342.78;;;11.69;89.32
4346;BME280;2186;49.866;7.986;2023-03-21T07:52:30;100346.81;;;11.82;88.01
4346;BME280;2186;49.866;7.986;2023-03-21T07:54:57;100341.34;;;11.87;87.64
4346;BME280;2186;49.866;7.986;2023-03-21T07:57:23;100350.81;;;11.68;88.79
4346;BME280;2186;49.866;7.986;2023-03-21T07:59:50;100344.63;;;12.22;87.58
4346;BME280;2186;49.866;7.986;2023-03-21T08:02:17;100348.13;;;11.69;88.12
4346;BME280;2186;49.866;7.986;2023-03-21T08:04:44;100339.81;;;11.80;88.49
4346;BME280;2186;49.866;7.986;2023-03-21T08:07:11;100343.75;;;11.95;87.65
4346;BME280;2186;49.866;7.986;2023-03-21T08:09:37;100344.88;;;11.88;87.72
4346;BME280;2186;49.866;7.986;2023-03-21T08:12:05;100345.03;;;11.83;87.56
4346;BME280;2186;49.866;7.986;2023-03-21T08:14:34;100348.81;;;12.02;87.81
4346;BME280;2186;49.866;7.986;2023-03-21T08:17:05;100352.34;;;12.03;85.84
4346;BME280;2186;49.866;7.986;2023-03-21T08:19:34;100346.91;;;12.06;87.25
4346;BME280;2186;49.866;7.986;2023-03-21T08:22:00;100345.56;;;12.19;87.04
4346;BME280;2186;49.866;7.986;2023-03-21T08:24:27;100341.63;;;12.31;85.79
4346;BME280;2186;49.866;7.986;2023-03-21T08:26:54;100355.00;;;12.03;86.87
4346;BME280;2186;49.866;7.986;2023-03-21T08:29:21;100353.16;;;12.31;85.88
4346;BME280;2186;49.866;7.986;2023-03-21T08:31:48;100345.75;;;12.14;85.08
4346;BME280;2186;49.866;7.986;2023-03-21T08:34:14;100348.41;;;12.14;86.67
4346;BME280;2186;49.866;7.986;2023-03-21T08:36:43;100341.53;;;12.34;86.68
4346;BME280;2186;49.866;7.986;2023-03-21T08:39:09;100351.59;;;11.99;87.69
4346;BME280;2186;49.866;7.986;2023-03-21T08:41:36;100346.56;;;12.16;86.64
4346;BME280;2186;49.866;7.986;2023-03-21T08:44:04;100359.16;;;12.38;87.02
4346;BME280;2186;49.866;7.986;2023-03-21T08:46:32;100354.66;;;12.13;87.80
4346;BME280;2186;49.866;7.986;2023-03-21T08:48:58;100348.34;;;12.16;88.76
4346;BME280;2186;49.866;7.986;2023-03-21T08:51:25;100354.16;;;12.02;90.37
4346;BME280;2186;49.866;7.986;2023-03-21T08:53:52;100354.63;;;12.40;89.39
4346;BME280;2186;49.866;7.986;2023-03-21T08:56:18;100358.81;;;12.22;88.39
4346;BME280;2186;49.866;7.986;2023-03-21T08:58:44;100359.63;;;12.24;89.85
4346;BME280;2186;49.866;7.986;2023-03-21T09:01:12;100354.44;;;12.20;89.47
4346;BME280;2186;49.866;7.986;2023-03-21T09:03:42;100359.16;;;12.38;89.35
4346;BME280;2186;49.866;7.986;2023-03-21T09:06:09;100367.31;;;12.58;86.34
4346;BME280;2186;49.866;7.986;2023-03-21T09:08:37;100369.03;;;12.59;85.43
4346;BME280;2186;49.866;7.986;2023-03-21T09:11:03;100360.47;;;12.51;86.61
4346;BME280;2186;49.866;7.986;2023-03-21T09:13:30;100356.19;;;12.70;85.22
4346;BME280;2186;49.866;7.986;2023-03-21T09:15:56;100353.72;;;12.41;86.91
4346;BME280;2186;49.866;7.986;2023-03-21T09:18:27;100346.94;;;12.31;87.48
4346;BME280;2186;49.866;7.986;2023-03-21T09:21:08;100354.47;;;12.69;85.70
4346;BME280;2186;49.866;7.986;2023-03-21T09:23:38;100349.06;;;12.46;87.31
4346;BME280;2186;49.866;7.986;2023-03-21T09:26:05;100354.56;;;12.41;85.91
4346;BME280;2186;49.866;7.986;2023-03-21T09:28:32;100348.47;;;12.13;86.97
4346;BME280;2186;49.866;7.986;2023-03-21T09:31:00;100356.19;;;12.45;88.45
4346;BME280;2186;49.866;7.986;2023-03-21T09:33:28;100348.50;;;12.38;88.30
4346;BME280;2186;49.866;7.986;2023-03-21T09:35:55;100348.84;;;12.27;89.12
4346;BME280;2186;49.866;7.986;2023-03-21T09:38:22;100347.81;;;12.31;89.33
4346;BME280;2186;49.866;7.986;2023-03-21T09:41:35;100345.03;;;12.09;89.92
4346;BME280;2186;49.866;7.986;2023-03-21T09:44:29;100347.00;;;12.29;91.52
4346;BME280;2186;49.866;7.986;2023-03-21T09:47:24;100355.75;;;12.83;88.15
4346;BME280;2186;49.866;7.986;2023-03-21T09:49:58;100357.06;;;12.46;89.93
4346;BME280;2186;49.866;7.986;2023-03-21T09:55:52;100353.44;;;12.97;88.84
4346;BME280;2186;49.866;7.986;2023-03-21T10:01:03;100347.50;;;12.65;91.34
4346;BME280;2186;49.866;7.986;2023-03-21T10:03:33;100356.75;;;12.55;90.02
4346;BME280;2186;49.866;7.986;2023-03-21T10:06:03;100355.81;;;12.31;90.71
4346;BME280;2186;49.866;7.986;2023-03-21T10:08:34;100358.13;;;12.15;91.15
4346;BME280;2186;49.866;7.986;2023-03-21T10:11:23;100349.38;;;12.12;91.53
4346;BME280;2186;49.866;7.986;2023-03-21T10:13:55;100353.56;;;11.94;93.78
4346;BME280;2186;49.866;7.986;2023-03-21T10:16:28;100347.94;;;12.02;96.04
4346;BME280;2186;49.866;7.986;2023-03-21T10:18:56;100344.97;;;12.11;94.39
4346;BME280;2186;49.866;7.986;2023-03-21T10:21:26;100356.69;;;12.05;94.40
4346;BME280;2186;49.866;7.986;2023-03-21T10:24:25;100348.34;;;12.16;93.37
4346;BME280;2186;49.866;7.986;2023-03-21T10:26:53;100356.84;;;12.27;95.41
4346;BME280;2186;49.866;7.986;2023-03-21T10:29:23;100346.31;;;12.24;95.70
4346;BME280;2186;49.866;7.986;2023-03-21T10:31:51;100342.50;;;12.31;95.05
4346;BME280;2186;49.866;7.986;2023-03-21T10:35:01;100335.78;;;12.20;95.43
4346;BME280;2186;49.866;7.986;2023-03-21T10:37:10;100335.78;;;12.20;96.76
4346;BME280;2186;49.866;7.986;2023-03-21T10:39:39;100330.91;;;12.07;94.95
4346;BME280;2186;49.866;7.986;2023-03-21T10:42:16;100334.97;;;11.91;94.93
4346;BME280;2186;49.866;7.986;2023-03-21T10:44:46;100329.88;;;11.85;96.28
4346;BME280;2186;49.866;7.986;2023-03-21T10:47:20;100330.75;;;11.85;96.46
4346;BME280;2186;49.866;7.986;2023-03-21T10:49:47;100327.31;;;11.82;95.93
4346;BME280;2186;49.866;7.986;2023-03-21T10:52:34;100323.03;;;12.03;95.83
4346;BME280;2186;49.866;7.986;2023-03-21T10:55:34;100326.56;;;12.03;97.40
4346;BME280;2186;49.866;7.986;2023-03-21T10:58:08;100317.19;;;11.93;97.59
4346;BME280;2186;49.866;7.986;2023-03-21T11:00:39;100316.25;;;11.94;98.03
4346;BME280;2186;49.866;7.986;2023-03-21T11:03:18;100319.16;;;12.13;97.46
4346;BME280;2186;49.866;7.986;2023-03-21T11:05:47;100318.25;;;12.39;96.03
4346;BME280;2186;49.866;7.986;2023-03-21T11:08:16;100314.09;;;12.55;95.51
4346;BME280;2186;49.866;7.986;2023-03-21T11:11:05;100314.28;;;12.51;94.75
4346;BME280;2186;49.866;7.986;2023-03-21T11:13:42;100317.13;;;12.69;95.68
4346;BME280;2186;49.866;7.986;2023-03-21T11:18:42;100314.81;;;12.84;94.96
4346;BME280;2186;49.866;7.986;2023-03-21T11:21:11;100312.44;;;12.99;96.30
4346;BME280;2186;49.866;7.986;2023-03-21T11:23:41;100313.31;;;13.00;93.40
4346;BME280;2186;49.866;7.986;2023-03-21T11:26:16;100307.41;;;12.92;92.01
4346;BME280;2186;49.866;7.986;2023-03-21T11:28:45;100301.59;;;13.04;94.10
4346;BME280;2186;49.866;7.986;2023-03-21T11:31:11;100308.09;;;12.97;92.43
4346;BME280;2186;49.866;7.986;2023-03-21T11:33:41;100311.47;;;13.02;92.45
4346;BME280;2186;49.866;7.986;2023-03-21T11:36:35;100306.16;;;13.00;91.58
4346;BME280;2186;49.866;7.986;2023-03-21T11:41:53;100313.44;;;13.44;93.69
4346;BME280;2186;49.866;7.986;2023-03-21T11:44:34;100308.44;;;13.34;91.83
4346;BME280;2186;49.866;7.986;2023-03-21T11:47:08;100302.31;;;13.32;89.99
4346;BME280;2186;49.866;7.986;2023-03-21T11:49:35;100300.31;;;13.38;92.36
4346;BME280;2186;49.866;7.986;2023-03-21T11:52:13;100303.63;;;13.44;91.58
4346;BME280;2186;49.866;7.986;2023-03-21T11:55:10;100283.47;;;13.36;94.22
4346;BME280;2186;49.866;7.986;2023-03-21T11:57:54;100290.38;;;13.19;93.12
4346;BME280;2186;49.866;7.986;2023-03-21T12:00:53;100274.22;;;13.22;97.11
4346;BME280;2186;49.866;7.986;2023-03-21T12:06:35;100274.84;;;13.29;94.33
4346;BME280;2186;49.866;7.986;2023-03-21T12:09:42;100268.94;;;13.21;97.23
4346;BME280;2186;49.866;7.986;2023-03-21T12:12:41;100271.75;;;13.40;95.88
4346;BME280;2186;49.866;7.986;2023-03-21T12:15:16;100256.34;;;13.88;94.85
4346;BME280;2186;49.866;7.986;2023-03-21T12:18:06;100262.44;;;13.50;96.00
4346;BME280;2186;49.866;7.986;2023-03-21T12:20:53;100270.00;;;13.39;95.72
4346;BME280;2186;49.866;7.986;2023-03-21T12:26:51;100252.00;;;13.44;95.37
4346;BME280;2186;49.866;7.986;2023-03-21T12:29:25;100252.53;;;13.52;95.81
4346;BME280;2186;49.866;7.986;2023-03-21T12:32:07;100246.69;;;13.64;96.27
4346;BME280;2186;49.866;7.986;2023-03-21T12:37:55;100243.94;;;13.45;98.78
4346;BME280;2186;49.866;7.986;2023-03-21T12:46:02;100224.56;;;13.18;97.15
4346;BME280;2186;49.866;7.986;2023-03-21T12:48:44;100224.25;;;13.26;97.49
4346;BME280;2186;49.866;7.986;2023-03-21T12:51:16;100219.91;;;13.23;98.26
4346;BME280;2186;49.866;7.986;2023-03-21T12:53:57;100230.28;;;13.31;97.34
4346;BME280;2186;49.866;7.986;2023-03-21T12:59:32;100222.81;;;13.17;97.03
4346;BME280;2186;49.866;7.986;2023-03-21T13:05:23;100206.75;;;13.19;98.65
4346;BME280;2186;49.866;7.986;2023-03-21T13:07:58;100213.97;;;13.15;100.00
4346;BME280;2186;49.866;7.986;2023-03-21T13:10:26;100198.41;;;13.26;100.00
4346;BME280;2186;49.866;7.986;2023-03-21T13:15:56;100198.31;;;13.29;100.00
4346;BME280;2186;49.866;7.986;2023-03-21T13:18:37;100192.84;;;13.32;100.00
4346;BME280;2186;49.866;7.986;2023-03-21T13:21:14;100189.38;;;13.30;100.00
4346;BME280;2186;49.866;7.986;2023-03-21T13:23:58;100187.00;;;13.23;100.00
4346;BME280;2186;49.866;7.986;2023-03-21T13:26:37;100181.53;;;13.26;100.00
4346;BME280;2186;49.866;7.986;2023-03-21T13:29:24;100189.31;;;13.32;100.00
4346;BME280;2186;49.866;7.986;2023-03-21T13:31:54;100179.94;;;13.22;100.00
4346;BME280;2186;49.866;7.986;2023-03-21T13:34:23;100177.25;;;13.22;100.00
4346;BME280;2186;49.866;7.986;2023-03-21T13:36:51;100178.94;;;13.24;100.00
4346;BME280;2186;49.866;7.986;2023-03-21T13:39:26;100175.63;;;13.18;100.00
4346;BME280;2186;49.866;7.986;2023-03-21T13:41:59;100174.06;;;13.12;100.00
4346;BME280;2186;49.866;7.986;2023-03-21T13:44:38;100165.44;;;13.05;100.00
4346;BME280;2186;49.866;7.986;2023-03-21T13:47:37;100169.66;;;13.11;100.00
4346;BME280;2186;49.866;7.986;2023-03-21T13:55:41;100161.84;;;13.07;100.00
4346;BME280;2186;49.866;7.986;2023-03-21T13:58:35;100161.16;;;13.01;100.00
4346;BME280;2186;49.866;7.986;2023-03-21T14:03:29;100146.56;;;13.10;100.00
4346;BME280;2186;49.866;7.986;2023-03-21T14:05:59;100133.72;;;12.98;100.00
4346;BME280;2186;49.866;7.986;2023-03-21T14:08:27;100118.00;;;13.12;100.00
4346;BME280;2186;49.866;7.986;2023-03-21T14:11:06;100109.41;;;12.84;100.00
4346;BME280;2186;49.866;7.986;2023-03-21T14:13:33;100108.34;;;13.10;100.00
4346;BME280;2186;49.866;7.986;2023-03-21T14:16:13;100118.81;;;13.36;100.00
4346;BME280;2186;49.866;7.986;2023-03-21T14:18:47;100108.94;;;13.38;100.00
4346;BME280;2186;49.866;7.986;2023-03-21T14:21:30;100101.53;;;13.24;100.00
4346;BME280;2186;49.866;7.986;2023-03-21T14:24:04;100092.53;;;13.05;100.00
4346;BME280;2186;49.866;7.986;2023-03-21T14:26:34;100116.97;;;13.16;100.00
4346;BME280;2186;49.866;7.986;2023-03-21T14:29:06;100141.13;;;13.35;100.00
4346;BME280;2186;49.866;7.986;2023-03-21T14:31:50;100132.97;;;13.38;100.00
4346;BME280;2186;49.866;7.986;2023-03-21T14:34:19;100136.06;;;13.49;100.00
4346;BME280;2186;49.866;7.986;2023-03-21T14:36:47;100131.66;;;13.48;100.00
4346;BME280;2186;49.866;7.986;2023-03-21T14:39:27;100121.03;;;13.47;100.00
4346;BME280;2186;49.866;7.986;2023-03-21T14:41:56;100109.13;;;13.54;99.42